Elberta, UT

10:45 PM MDT on August 27, 2014 (GMT -0600)
Eagle Park | Change Station
CLOSE
Current Station
Personal Weather Station
Location: Eagle Mountain, UT
Elevation: 4324 ft
Nearby Weather Stations

Elev 4324 ft 40.18 °N, 112.00 °W | Updated 7 minutes ago

Clear
Clear
58.3 °F
Feels Like 58.3 °F
N
3.7
Wind Variable Wind from NNW

Today
High -- | Low -- °F
--% Chance of Precip.
Yesterday
High -- | Low -- °F
Precip. -- in
6:51 AM 8:07 PM
Waxing Crescent, 6% visible
Pressure 30.26 in
Visibility 10.0 miles
Clouds Clear
Dew Point 58 °F
Humidity 98%
Rainfall 0.05 in
Snow Depth Not available.
UV 0 out of 12
Pollen 7.40 out of 12
Air Quality Not available.
Flu Activity Not available.
METAR KPVU 280435Z AUTO 11003KT 10SM CLR 14/10 A3026 RMK AO1

More Conditions Fewer Conditions

Pressure 30.26 in
Visibility 10.0 miles
Clouds Clear
Dew Point 58 °F
Humidity 98%
Rainfall 0.05 in
Snow Depth Not available.
UV 0 out of 12
Pollen 7.40 out of 12
Air Quality Not available.
Flu Activity Not available.
METAR KPVU 280435Z AUTO 11003KT 10SM CLR 14/10 A3026 RMK AO1

More Conditions Fewer Conditions

10-Day Weather Forecast

Almanac

Astronomy

Aug. 27, 2014 Rise Set
Actual Time 6:51 AM MDT 8:07 PM MDT
Civil Twilight 6:22 AM MDT 8:35 PM MDT
Nautical Twilight 5:49 AM MDT 9:09 PM MDT
Astronomical Twilight 5:13 AM MDT 9:44 PM MDT
Moon 8:50 AM MDT (8/27) 9:01 PM MDT (8/27)
Length of Visible Light 14h 12m
Length of Day
13h 16m
Tomorrow will be 2m 30s shorter.
Waxing Crescent, 6% of the Moon is Illuminated
Aug 28
Waxing Crescent
Sep 2
First Quarter
Sep 8
Full
Sep 15
Last Quarter
Sep 24
New

Yesterday's Extremes

State Highs State Lows

Community

WunderPhotos

Upload Photos

1,747,907 photos uploaded!

Nearby

Snow Depth

Station Depth Elevation
Cascade Mountain 1 in 7768 ft
Mill-d North 0 in 8960 ft
Daniels-Strawberry 0 in 8000 ft
Strawberry Divide 1 in 8400 ft
Clear Creek #2 0 in 8300 ft

Earthquake Activity

City Distance Mag. Time & Date
No recent earthquake activity has been reported nearby.
Minimum magnitude displayed is 2.5.

Coastal Water Temperatures

Place Temperature
No Stations Reporting

Nearby Weather Stations